Boise, ID (83711)

8:44 PM MST on February 10, 2016 (GMT -0700)
Millstream #2 | | Change Station
CLOSE
Current Station
Personal Weather Station
Location: Garden City, ID
Elevation: 2612 ft
Nearby Weather Stations

Elev 2612 ft 43.66 °N, 116.29 °W | Updated 38 seconds ago

Clear
Clear
34.3 °F
Feels Like 34 °F
N
0.0
Wind Variable Wind from NNW
Gusts 0.0 mph

Today
High -- | Low -- °F
--% Chance of Precip.
Yesterday
High -- | Low -- °F
Precip. -- in
Pressure 30.49 in
Visibility 9.0 miles
Clouds Few 9000 ft
Windchill 34 °F
Dew Point 30 °F
Humidity 84%
Rainfall 0.00 in
Snow Depth Not available.
7:51 AM 6:08 PM
Waxing Crescent, 9% visible
METAR KBOI 110253Z 28004KT 9SM FEW090 02/M01 A3043 RMK AO2 SLP324 T00221006 51004
Pressure 30.49 in
Visibility 9.0 miles
Clouds Few 9000 ft
Windchill 34 °F
Dew Point 30 °F
Humidity 84%
Rainfall 0.00 in
Snow Depth Not available.
7:51 AM 6:08 PM
Waxing Crescent, 9% visible
METAR KBOI 110253Z 28004KT 9SM FEW090 02/M01 A3043 RMK AO2 SLP324 T00221006 51004

10-Day Weather Forecast

Almanac

Astronomy

Feb. 10, 2016 Rise Set
Actual Time
Civil Twilight
Nautical Twilight
Astronomical Twilight
Moon
Length of Visible Light
Length of Day
Tomorrow will be .
, % of the Moon is Illuminated

Today's Extremes

State Highs State Lows

Community

WunderPhotos

Upload Photos

1,892,000 photos uploaded!

WunderBlog® & News

Nearby

Air Quality

  Air Quality AQ Index Pollutant
Not available.

Snow Depth

Station Depth Elevation

Earthquake Activity

City Distance Mag. Time & Date
Minimum magnitude displayed is 2.5.

Coastal Water Temperatures

Place Temperature

Stations

Nearby Weather Stations

Station Location Temp. Windchill Dew Point Humidity Wind Precip. Elev Updated Type
                   

Watches & Warnings

There are currently no watches in effect.